MSC Chiara — H3RT — position and weather

sailwx.info

Track history (hours):
 
Tides and Currents Weather Stations Pressure Air Temp Water Temp Dewpoint Dewpoint Depression Visibility Wind Speed Wind Dir Waves Ship Positions

MSC Chiara

Last reported at 2017-Oct-10 21:31 UTC. Time now 2017-Oct-22 23:17 UTC.
Position S 29°15' E 031°53'.
Warning: this ship's position is 12 days out of date.

Length 197 m; draft 12.2 m.

Type: Ship (hazmat cat A). MMSI: 352398000.

Date/timePositionNaut miles runAvg speedWind from/ knotsBaromVisibWave heightAir tempDewpointWater temp
2017-Oct-10 21:31S 29°15' E 031°53'612.2
2017-Oct-10 21:00S 29°19' E 031°48'612.3
2017-Oct-10 20:30S 29°23' E 031°43'611.8
2017-Oct-10 20:01S 29°27' E 031°38'611.5
2017-Oct-10 19:30S 29°31' E 031°33'612.1
2017-Oct-10 19:00S 29°34' E 031°27'612.1
2017-Oct-10 18:30S 29°38' E 031°22'611.9
2017-Oct-10 18:00S 29°42' E 031°17'612.5
2017-Oct-10 17:30S 29°46' E 031°11'611.2
2017-Oct-10 17:01S 29°50' E 031°06'4 8.5
2017-Oct-10 16:31S 29°53' E 031°03'0 0.6
2017-Oct-10 15:58S 29°52' E 031°02'0 0.0
2017-Oct-10 15:28S 29°52' E 031°02'0 0.0
2017-Oct-10 14:00S 29°52' E 031°02'0 0.0
2017-Oct-10 13:30S 29°52' E 031°02'0 0.0
2017-Oct-10 13:00S 29°52' E 031°02'0 0.0
2017-Oct-10 12:30S 29°52' E 031°02'0 0.0
2017-Oct-10 11:59S 29°52' E 031°02'0 0.0
2017-Oct-10 09:13S 29°52' E 031°02'0 0.0
2017-Oct-10 08:58S 29°52' E 031°02'0 0.0
2017-Oct-10 08:28S 29°52' E 031°02'0 0.0
2017-Oct-10 07:58S 29°52' E 031°02'0 0.0
2017-Oct-10 07:28S 29°52' E 031°02'0 0.0
2017-Oct-10 07:00S 29°52' E 031°02'0 0.0
2017-Oct-10 06:30S 29°52' E 031°02'0 0.0
2017-Oct-10 06:00S 29°52' E 031°02'0 0.0
2017-Oct-10 05:30S 29°52' E 031°02'0 0.0
2017-Oct-10 04:59S 29°52' E 031°02'0 0.0
2017-Oct-10 04:29S 29°52' E 031°02'0 0.0
2017-Oct-10 03:59S 29°52' E 031°02'0 0.0
2017-Oct-10 03:29S 29°52' E 031°02'0 0.0
2017-Oct-10 02:59S 29°52' E 031°02'0 0.0
2017-Oct-10 02:28S 29°52' E 031°02'0 0.0
2017-Oct-10 01:58S 29°52' E 031°02'0 0.0
2017-Oct-10 01:28S 29°52' E 031°02'0 0.0
2017-Oct-10 00:58S 29°52' E 031°02'0 0.0
2017-Oct-10 00:27S 29°52' E 031°02'0 0.0
2017-Oct-09 23:57S 29°52' E 031°02'0 0.0
2017-Oct-09 23:30S 29°52' E 031°02'0 0.0
2017-Oct-09 22:57S 29°52' E 031°02'0 0.0
2017-Oct-09 22:30S 29°52' E 031°02'0 0.0
2017-Oct-09 21:59S 29°52' E 031°02'0 0.0
2017-Oct-09 21:29S 29°52' E 031°02'0 0.3
2017-Oct-09 21:00S 29°53' E 031°02'3 6.3
2017-Oct-09 20:30S 29°50' E 031°05'3 5.7
2017-Oct-09 20:00S 29°48' E 031°07'1 1.2
2017-Oct-09 19:30S 29°49' E 031°08'2 4.0
2017-Oct-09 19:00S 29°49' E 031°10'2 3.7
2017-Oct-09 18:30S 29°48' E 031°12'2 3.2
2017-Oct-09 18:00S 29°47' E 031°14'2 3.6
2017-Oct-09 17:30S 29°46' E 031°15'1 2.7
2017-Oct-09 17:00S 29°46' E 031°17'2 3.5
2017-Oct-09 16:30S 29°47' E 031°15'2 3.3
2017-Oct-09 16:00S 29°48' E 031°14'3 6.5
2017-Oct-09 15:30S 29°50' E 031°11'714.3
2017-Oct-09 15:00S 29°55' E 031°05'816.6
2017-Oct-09 14:30S 30°02' E 031°00'816.9
2017-Oct-09 14:00S 30°10' E 030°56'  
Track history (hours):
 
Tides and Currents Weather Stations Pressure Air Temp Water Temp Dewpoint Dewpoint Depression Visibility Wind Speed Wind Dir Waves Ship Positions

MSC Chiara

Last reported at 2017-Oct-10 21:31 UTC. Time now 2017-Oct-22 23:17 UTC.
Position S 29°15' E 031°53'.
Warning: this ship's position is 12 days out of date.

Length 197 m; draft 12.2 m.

Type: Ship (hazmat cat A). MMSI: 352398000.

Date/timePositionNaut miles runAvg speedWind from/ knotsBaromVisibWave heightAir tempDewpointWater temp
2017-Oct-10 21:31S 29°15' E 031°53'612.2
2017-Oct-10 21:00S 29°19' E 031°48'612.3
2017-Oct-10 20:30S 29°23' E 031°43'611.8
2017-Oct-10 20:01S 29°27' E 031°38'611.5
2017-Oct-10 19:30S 29°31' E 031°33'612.1
2017-Oct-10 19:00S 29°34' E 031°27'612.1
2017-Oct-10 18:30S 29°38' E 031°22'611.9
2017-Oct-10 18:00S 29°42' E 031°17'612.5
2017-Oct-10 17:30S 29°46' E 031°11'611.2
2017-Oct-10 17:01S 29°50' E 031°06'4 8.5
2017-Oct-10 16:31S 29°53' E 031°03'0 0.6
2017-Oct-10 15:58S 29°52' E 031°02'0 0.0
2017-Oct-10 15:28S 29°52' E 031°02'0 0.0
2017-Oct-10 14:00S 29°52' E 031°02'0 0.0
2017-Oct-10 13:30S 29°52' E 031°02'0 0.0
2017-Oct-10 13:00S 29°52' E 031°02'0 0.0
2017-Oct-10 12:30S 29°52' E 031°02'0 0.0
2017-Oct-10 11:59S 29°52' E 031°02'0 0.0
2017-Oct-10 09:13S 29°52' E 031°02'0 0.0
2017-Oct-10 08:58S 29°52' E 031°02'0 0.0
2017-Oct-10 08:28S 29°52' E 031°02'0 0.0
2017-Oct-10 07:58S 29°52' E 031°02'0 0.0
2017-Oct-10 07:28S 29°52' E 031°02'0 0.0
2017-Oct-10 07:00S 29°52' E 031°02'0 0.0
2017-Oct-10 06:30S 29°52' E 031°02'0 0.0
2017-Oct-10 06:00S 29°52' E 031°02'0 0.0
2017-Oct-10 05:30S 29°52' E 031°02'0 0.0
2017-Oct-10 04:59S 29°52' E 031°02'0 0.0
2017-Oct-10 04:29S 29°52' E 031°02'0 0.0
2017-Oct-10 03:59S 29°52' E 031°02'0 0.0
2017-Oct-10 03:29S 29°52' E 031°02'0 0.0
2017-Oct-10 02:59S 29°52' E 031°02'0 0.0
2017-Oct-10 02:28S 29°52' E 031°02'0 0.0
2017-Oct-10 01:58S 29°52' E 031°02'0 0.0
2017-Oct-10 01:28S 29°52' E 031°02'0 0.0
2017-Oct-10 00:58S 29°52' E 031°02'0 0.0
2017-Oct-10 00:27S 29°52' E 031°02'0 0.0
2017-Oct-09 23:57S 29°52' E 031°02'0 0.0
2017-Oct-09 23:30S 29°52' E 031°02'0 0.0
2017-Oct-09 22:57S 29°52' E 031°02'0 0.0
2017-Oct-09 22:30S 29°52' E 031°02'0 0.0
2017-Oct-09 21:59S 29°52' E 031°02'0 0.0
2017-Oct-09 21:29S 29°52' E 031°02'0 0.3
2017-Oct-09 21:00S 29°53' E 031°02'3 6.3
2017-Oct-09 20:30S 29°50' E 031°05'3 5.7
2017-Oct-09 20:00S 29°48' E 031°07'1 1.2
2017-Oct-09 19:30S 29°49' E 031°08'2 4.0
2017-Oct-09 19:00S 29°49' E 031°10'2 3.7
2017-Oct-09 18:30S 29°48' E 031°12'2 3.2
2017-Oct-09 18:00S 29°47' E 031°14'2 3.6
2017-Oct-09 17:30S 29°46' E 031°15'1 2.7
2017-Oct-09 17:00S 29°46' E 031°17'2 3.5
2017-Oct-09 16:30S 29°47' E 031°15'2 3.3
2017-Oct-09 16:00S 29°48' E 031°14'3 6.5
2017-Oct-09 15:30S 29°50' E 031°11'714.3
2017-Oct-09 15:00S 29°55' E 031°05'816.6
2017-Oct-09 14:30S 30°02' E 031°00'816.9
2017-Oct-09 14:00S 30°10' E 030°56'  

Dump ship's entire track history